Latest Weather Observations for Adelaide Airport

IDS60801

Issued at 5:31 pm CST Monday 25 September 2017 (issued every 30 minutes, with the page automatically refreshed every 10 minutes)

About weather observations | Map of weather stations | Latest weather observations for SA | Other Formats
Station Details ID: 023034 Name: ADELAIDE AIRPORT Lat: -34.95 Lon: 138.52 Height: 2.0 m
Data from the previous 72 hours. | See also: Recent months at Adelaide Airport
Date/Time
CST
Temp
°C
App
Temp
°C
Dew
Point
°C
Rel
Hum
%
Delta-T
°C
Wind Press
QNH
hPa
Press
MSL
hPa
Rain since
9am
mm
Dir  Spd
km/h
Gust
km/h
Spd
kts
Gust
kts
25/05:00pm 15.3 11.1 8.1 62 3.6 SW 20 28 11 15 1014.0 1014.0 0.0
25/04:30pm 15.4 11.1 7.1 57 4.1 WSW 19 24 10 13 1013.9 1013.9 0.0
25/04:00pm 15.8 11.9 7.3 57 4.2 SW 17 22 9 12 1013.8 1013.8 0.0
25/03:30pm 15.7 12.0 6.5 54 4.5 SW 15 19 8 10 1014.0 1014.0 0.0
25/03:00pm 15.8 11.9 7.3 57 4.2 SW 17 22 9 12 1014.0 1014.0 0.0
25/02:30pm 15.3 11.7 8.4 63 3.5 SW 17 20 9 11 1014.1 1014.1 0.0
25/02:00pm 15.8 12.8 9.4 65 3.3 SW 15 20 8 11 1014.2 1014.2 0.0
25/01:30pm 15.8 12.7 9.0 64 3.5 SW 15 22 8 12 1014.4 1014.4 0.0
25/01:00pm 15.5 12.1 7.7 59 3.9 WSW 15 20 8 11 1014.5 1014.5 0.0
25/12:30pm 15.8 12.5 9.6 66 3.2 WSW 17 22 9 12 1014.5 1014.5 0.0
25/12:00pm 15.2 11.7 8.9 66 3.2 WSW 17 24 9 13 1014.5 1014.5 0.0
25/11:30am 15.2 12.3 9.8 70 2.8 WSW 15 24 8 13 1014.4 1014.4 0.0
25/11:00am 15.4 12.3 10.3 71 2.7 WSW 17 26 9 14 1014.4 1014.4 0.0
25/10:30am 15.1 11.9 9.9 71 2.7 WSW 17 24 9 13 1014.3 1014.3 0.0
25/10:00am 15.4 12.2 9.8 69 2.9 W 17 26 9 14 1014.2 1014.2 0.0
25/09:30am 15.3 11.8 10.1 71 2.7 W 19 26 10 14 1014.0 1014.0 0.0
25/09:00am 14.9 11.1 9.2 68 2.9 W 19 26 10 14 1013.9 1013.9 0.8
25/08:30am 14.7 10.9 9.7 72 2.6 W 20 26 11 14 1013.6 1013.6 0.8
25/08:00am 14.0 10.1 9.3 73 2.4 W 20 26 11 14 1013.2 1013.2 0.8
25/07:30am 14.0 10.6 9.3 73 2.4 W 17 20 9 11 1012.6 1012.6 0.8
25/07:00am 13.4 9.3 8.8 74 2.3 WSW 20 28 11 15 1012.1 1012.1 0.8
25/06:30am 12.7 9.2 8.7 76 2.0 SW 17 24 9 13 1011.1 1011.1 0.8
25/06:00am 12.6 9.0 8.4 75 2.1 WSW 17 20 9 11 1010.9 1010.9 0.8
25/05:30am 12.6 8.5 8.8 77 1.9 WSW 20 28 11 15 1010.6 1010.6 0.8
25/05:00am 12.7 8.2 8.5 75 2.1 W 22 28 12 15 1010.6 1010.6 0.8
25/04:30am 12.5 8.2 8.0 74 2.2 W 20 28 11 15 1010.5 1010.5 0.8
25/04:00am 12.8 8.0 8.8 76 2.0 W 24 32 13 17 1010.4 1010.4 0.8
25/03:30am 12.8 8.3 8.4 74 2.2 W 22 30 12 16 1010.2 1010.2 0.8
25/03:00am 12.7 8.6 8.5 75 2.1 W 20 30 11 16 1010.1 1010.1 0.8
25/02:30am 12.8 8.3 8.4 74 2.2 W 22 30 12 16 1010.0 1010.0 0.8
25/02:00am 13.3 8.6 9.2 76 2.1 W 24 30 13 16 1009.9 1009.9 0.8
25/01:30am 13.1 9.0 8.7 74 2.2 W 20 26 11 14 1010.0 1010.0 0.8
25/01:00am 12.9 8.0 8.3 73 2.3 W 24 30 13 16 1010.0 1010.0 0.8
25/12:30am 13.1 8.0 7.6 69 2.7 W 24 32 13 17 1010.1 1010.1 0.8
25/12:00am 13.2 8.2 7.9 70 2.6 W 24 32 13 17 1010.0 1010.0 0.8
 
Date/Time
CST
Temp
°C
App
Temp
°C
Dew
Point
°C
Rel
Hum
%
Delta-T
°C
Wind Press
QNH
hPa
Press
MSL
hPa
Rain since
9am
mm
Dir  Spd
km/h
Gust
km/h
Spd
kts
Gust
kts
24/11:30pm 13.3 7.4 7.6 68 2.8 W 28 33 15 18 1010.2 1010.2 0.8
24/11:00pm 13.4 7.8 7.0 65 3.1 W 26 35 14 19 1010.1 1010.1 0.8
24/10:30pm 13.5 7.1 6.9 64 3.2 W 30 39 16 21 1009.9 1009.9 0.8
24/10:00pm 13.7 6.9 6.7 62 3.4 WNW 32 37 17 20 1009.9 1009.9 0.8
24/09:30pm 13.8 7.5 7.5 66 3.1 WNW 30 41 16 22 1009.9 1009.9 0.8
24/09:00pm 13.9 8.3 7.1 63 3.3 WNW 26 35 14 19 1009.7 1009.7 0.8
24/08:30pm 14.1 8.3 7.9 66 3.1 WNW 28 33 15 18 1009.5 1009.5 0.8
24/08:00pm 14.6 8.1 8.2 65 3.2 WNW 32 41 17 22 1009.2 1009.2 0.8
24/07:30pm 14.8 10.0 8.7 67 3.1 WNW 24 33 13 18 1008.9 1008.9 0.8
24/07:00pm 14.9 9.1 8.1 64 3.4 WNW 28 35 15 19 1008.4 1008.4 0.8
24/06:30pm 15.0 10.0 8.0 63 3.5 WNW 24 32 13 17 1007.9 1007.9 0.8
24/06:00pm 15.2 9.3 7.6 60 3.8 WNW 28 33 15 18 1007.6 1007.6 0.8
24/05:30pm 15.2 9.4 8.0 62 3.6 WNW 28 35 15 19 1007.3 1007.3 0.8
24/05:00pm 15.7 9.7 7.2 57 4.2 WNW 28 37 15 20 1006.9 1006.9 0.8
24/04:30pm 16.2 9.9 7.4 56 4.4 WNW 30 37 16 20 1006.4 1006.4 0.8
24/04:00pm 16.8 10.4 6.9 52 4.9 WNW 30 37 16 20 1006.3 1006.3 0.8
24/03:30pm 17.0 10.2 7.0 51 5.0 WNW 32 41 17 22 1006.0 1006.0 0.8
24/03:00pm 16.8 10.8 7.2 53 4.8 WNW 28 35 15 19 1006.0 1006.0 0.8
24/02:30pm 16.9 10.2 7.3 53 4.8 W 32 37 17 20 1006.0 1006.0 0.8
24/02:00pm 17.0 10.6 8.7 58 4.3 WNW 32 43 17 23 1006.0 1006.0 0.8
24/01:30pm 16.8 10.6 7.9 55 4.5 WNW 30 39 16 21 1005.9 1005.9 0.8
24/01:00pm 16.4 9.2 7.7 56 4.4 WNW 35 48 19 26 1005.9 1005.9 0.8
24/12:30pm 15.9 9.6 8.9 63 3.6 WNW 32 39 17 21 1005.8 1005.8 0.8
24/12:15pm 15.0 9.2 9.6 70 2.8 WNW 30 43 16 23 1005.9 1005.9 0.8
24/12:00pm 13.6 7.5 10.5 81 1.6 WNW 33 44 18 24 1005.9 1005.9 0.8
24/11:57am 13.9 8.0 10.5 80 1.8 WNW 32 43 17 23 1005.9 1005.9 0.8
24/11:30am 16.0 9.8 9.5 65 3.4 WNW 32 43 17 23 1005.7 1005.7 0.4
24/11:00am 14.4 7.7 9.8 74 2.4 WNW 35 52 19 28 1005.6 1005.6 0.4
24/10:51am 14.7 9.9 10.3 75 2.3 WNW 26 37 14 20 1005.5 1005.5 0.4
24/10:30am 12.7 6.3 10.8 88 1.0 W 35 43 19 23 1005.7 1005.7 0.4
24/10:21am 13.7 7.3 9.4 75 2.2 WNW 33 48 18 26 1005.6 1005.6 0.0
24/10:11am 14.2 8.1 9.8 75 2.3 NW 32 50 17 27 1005.4 1005.4 0.0
24/10:00am 14.8 8.6 9.2 69 2.9 NW 32 41 17 22 1005.4 1005.4 0.0
24/09:30am 15.4 8.9 9.0 65 3.3 NNW 33 44 18 24 1005.4 1005.4 0.0
24/09:00am 15.6 9.2 9.2 65 3.3 NW 33 46 18 25 1005.1 1005.1 0.0
24/08:30am 14.8 7.6 9.2 69 2.9 NW 37 50 20 27 1004.9 1004.9 0.0
24/08:00am 14.5 6.9 9.2 70 2.7 NW 39 54 21 29 1004.7 1004.7 0.0
24/07:30am 14.0 7.8 9.3 73 2.4 NW 32 46 17 25 1004.5 1004.5 0.0
24/07:00am 13.9 8.1 9.4 74 2.3 NW 30 37 16 20 1004.4 1004.4 0.0
24/06:30am 13.5 8.1 9.6 77 2.0 NW 28 33 15 18 1004.0 1004.0 0.0
24/06:00am 13.6 8.6 9.5 76 2.1 NW 26 35 14 19 1003.9 1003.9 0.0
24/05:30am 13.8 8.7 9.1 73 2.4 NW 26 37 14 20 1003.7 1003.7 0.0
24/05:00am 13.8 8.0 9.3 74 2.3 NW 30 39 16 21 1003.3 1003.3 0.0
24/04:30am 13.7 9.0 9.4 75 2.2 WNW 24 35 13 19 1003.1 1003.1 0.0
24/04:00am 13.6 8.5 9.1 74 2.3 WNW 26 41 14 22 1002.9 1002.9 0.0
24/03:30am 13.7 7.5 9.4 75 2.2 WNW 32 41 17 22 1002.9 1002.9 0.0
24/03:00am 14.0 8.1 10.4 79 1.9 WNW 32 39 17 21 1002.9 1002.9 0.0
24/02:30am 14.3 8.5 10.9 80 1.8 WNW 32 39 17 21 1003.0 1003.0 0.0
24/02:00am 14.3 8.8 10.7 79 1.9 WNW 30 41 16 22 1003.0 1003.0 0.0
24/01:30am 14.2 9.2 10.8 80 1.8 NW 28 37 15 20 1003.3 1003.3 0.0
24/01:00am 14.1 9.1 10.9 81 1.7 NW 28 39 15 21 1003.4 1003.4 0.0
24/12:30am 14.4 9.3 10.6 78 2.0 NW 28 39 15 21 1003.8 1003.8 0.0
24/12:00am 14.6 9.1 10.4 76 2.2 NW 30 41 16 22 1003.9 1003.9 0.0
 
Date/Time
CST
Temp
°C
App
Temp
°C
Dew
Point
°C
Rel
Hum
%
Delta-T
°C
Wind Press
QNH
hPa
Press
MSL
hPa
Rain since
9am
mm
Dir  Spd
km/h
Gust
km/h
Spd
kts
Gust
kts
23/11:30pm 14.7 9.6 10.5 76 2.2 NW 28 35 15 19 1004.2 1004.2 0.0
23/11:00pm 14.6 10.3 10.6 77 2.1 NW 24 33 13 18 1004.3 1004.3 0.0
23/10:30pm 14.8 10.0 10.2 74 2.4 NW 26 35 14 19 1004.3 1004.3 0.0
23/10:00pm 14.9 9.7 10.3 74 2.4 NW 28 37 15 20 1004.5 1004.5 0.0
23/09:30pm 15.1 9.2 10.4 73 2.5 NW 32 41 17 22 1004.4 1004.4 0.0
23/09:00pm 15.1 11.1 10.6 74 2.4 NW 22 30 12 16 1004.6 1004.6 0.0
23/08:30pm 15.2 10.8 10.5 73 2.5 NW 24 32 13 17 1004.6 1004.6 0.0
23/08:00pm 15.2 11.3 10.7 74 2.4 NW 22 28 12 15 1004.6 1004.6 0.0
23/07:30pm 15.2 11.8 10.7 74 2.4 NW 19 28 10 15 1004.2 1004.2 0.0
23/07:00pm 15.4 12.7 10.5 72 2.6 NW 15 20 8 11 1003.7 1003.7 0.0
23/06:30pm 15.7 12.0 10.0 69 3.0 WNW 20 30 11 16 1003.4 1003.4 0.0
23/06:00pm 15.9 11.8 10.2 69 3.0 WNW 22 33 12 18 1003.1 1003.1 0.0
23/05:30pm 16.6 11.7 9.8 64 3.6 WNW 26 35 14 19 1002.9 1002.9 0.0
23/05:00pm 17.2 11.8 9.6 61 4.0 WNW 28 37 15 20 1002.8 1002.8 0.0
23/04:30pm 18.0 12.7 9.7 58 4.4 WNW 28 37 15 20 1002.7 1002.7 0.0
23/04:00pm 18.3 13.1 10.1 59 4.4 WNW 28 39 15 21 1002.5 1002.5 0.0
23/03:30pm 18.4 12.8 10.2 59 4.4 WNW 30 39 16 21 1002.3 1002.3 0.0
23/03:00pm 19.0 13.3 9.8 55 4.9 WNW 30 39 16 21 1002.1 1002.1 0.0
23/02:30pm 18.4 12.9 10.4 59 4.3 WNW 30 37 16 20 1001.7 1001.7 0.0
23/02:00pm 19.4 13.4 10.1 55 5.0 WNW 32 41 17 22 1001.2 1001.2 0.0
23/01:30pm 19.5 13.5 10.2 55 5.0 WNW 32 41 17 22 1000.9 1000.9 0.0
23/01:00pm 19.5 13.2 10.9 57 4.7 WNW 35 44 19 24 1000.5 1000.5 0.0
23/12:30pm 19.6 12.3 11.5 59 4.5 WNW 41 54 22 29 1000.1 1000.1 0.0
23/12:15pm 19.7 12.7 11.4 58 4.6 WNW 39 57 21 31 999.7 999.7 0.0
23/12:00pm 20.0 13.0 11.3 57 4.8 WNW 39 52 21 28 999.4 999.4 0.0
23/11:30am 20.8 14.4 11.9 56 5.0 NW 37 48 20 26 998.6 998.6 0.0
23/11:00am 20.6 16.2 11.6 56 5.0 NNW 26 35 14 19 998.1 998.1 0.0
23/10:30am 19.5 15.4 11.4 59 4.5 NNW 24 33 13 18 997.4 997.4 0.0
23/10:00am 20.4 16.3 12.7 61 4.3 N 26 35 14 19 997.1 997.1 0.0
23/09:30am 19.9 16.4 12.3 61 4.3 N 22 30 12 16 997.0 997.0 0.0
23/09:00am 20.0 17.0 12.4 61 4.3 N 20 28 11 15 996.7 996.7 0.0
23/08:30am 19.8 16.7 10.4 54 5.1 NE 17 24 9 13 996.4 996.4 0.0
23/08:00am 18.7 16.2 11.2 61 4.1 ENE 15 20 8 11 995.9 995.9 0.0
23/07:30am 16.9 15.4 11.8 72 2.8 ENE 11 13 6 7 995.6 995.6 0.0
23/07:00am 15.0 13.7 12.5 85 1.4 E 11 15 6 8 995.3 995.3 0.0
23/06:30am 15.2 13.5 12.5 84 1.5 W 13 19 7 10 995.0 995.0 0.0
23/06:00am 14.5 12.8 11.1 80 1.8 NE 11 13 6 7 994.1 994.1 0.0
23/05:30am 14.1 13.3 11.7 85 1.3 NE 7 13 4 7 994.1 994.1 0.0
23/05:00am 15.3 13.3 11.4 77 2.1 W 13 19 7 10 994.2 994.2 0.0
23/04:30am 14.8 13.9 11.5 80 1.8 NW 7 11 4 6 994.3 994.3 0.0
23/04:00am 15.5 15.2 11.6 77 2.1 SW 4 7 2 4 995.6 995.6 0.0
23/03:30am 17.3 15.8 10.4 64 3.7 W 9 15 5 8 996.7 996.7 0.0
23/03:00am 15.4 12.9 11.1 75 2.3 ESE 15 19 8 10 996.5 996.5 0.0
23/02:30am 16.6 15.5 11.9 74 2.6 E 9 22 5 12 998.5 998.5 0.0
23/02:00am 17.0 14.7 11.7 71 2.9 SSE 15 19 8 10 998.7 998.7 0.0
23/01:30am 17.7 15.7 10.2 61 4.0 W 11 22 6 12 999.2 999.2 0.0
23/01:00am 16.8 14.8 10.2 65 3.5 NNE 11 13 6 7 997.9 997.9 0.0
23/12:30am 16.5 15.2 11.1 70 2.9 ENE 9 13 5 7 999.2 999.2 0.0
23/12:23am 16.2 14.2 11.4 73 2.6 ENE 13 15 7 8 999.7 999.7 0.0
23/12:00am 16.7 15.8 11.4 71 2.9 E 7 11 4 6 1001.7 1001.7 0.0
 
Date/Time
CST
Temp
°C
App
Temp
°C
Dew
Point
°C
Rel
Hum
%
Delta-T
°C
Wind Press
QNH
hPa
Press
MSL
hPa
Rain since
9am
mm
Dir  Spd
km/h
Gust
km/h
Spd
kts
Gust
kts
22/11:30pm 16.7 14.4 11.8 73 2.7 WSW 15 22 8 12 1002.4 1002.4 0.0
22/11:00pm 17.6 14.5 11.6 68 3.3 S 19 33 10 18 1001.8 1001.8 0.0
22/10:30pm 19.5 16.1 10.5 56 4.9 SW 19 28 10 15 1001.8 1001.8 0.0
22/10:00pm 19.0 17.8 10.3 57 4.7 NE 7 11 4 6 1001.1 1001.1 0.0
22/09:30pm 21.2 18.1 8.8 45 6.6 NE 15 19 8 10 1002.2 1002.2 0.0
22/09:00pm 19.5 17.1 10.2 55 5.0 ENE 13 17 7 9 1001.8 1001.8 0.0
22/08:30pm 19.6 18.0 11.5 59 4.5 E 11 15 6 8 1002.3 1002.3 0.0
22/08:00pm 21.1 19.6 9.1 46 6.4 SE 7 9 4 5 1002.5 1002.5 0.0
22/07:30pm 20.6 19.1 9.1 47 6.1 SE 7 9 4 5 1002.3 1002.3 0.0
22/07:00pm 19.8 17.7 9.7 52 5.4 S 11 13 6 7 1002.2 1002.2 0.0
22/06:30pm 19.8 15.8 10.6 55 5.0 SW 22 35 12 19 1002.3 1002.3 0.0
22/06:21pm 21.4 18.5 9.5 46 6.4 WNW 15 32 8 17 1002.4 1002.4 0.0
22/06:00pm 26.6 23.7 6.7 28 10.5 NNW 11 13 6 7 1002.0 1002.0 0.0

Other Formats:

Comma delimited format used in spreadsheet applications
http://www.bom.gov.au/fwo/IDS60801/IDS60801.94672.axf

JavaScript Object Notation format (JSON) in row-major order
http://www.bom.gov.au/fwo/IDS60801/IDS60801.94672.json